Time;durP1;ratioP1;P1;durP2;ratioP2;P2;SDS_P1;SDS_P2;PMS_P1;PMS_P2;Temp;Humidity;BMP_temperature;BMP_pressure;BME280_temperature;BME280_humidity;BME280_pressure;Samples;Min_cycle;Max_cycle;Signal;HPM_P1;HPM_P2
2023/10/28 00:16:25;;;;;;;8.30;5.68;;;17.20;99.90;;;;;;4556276;19;20032;-84
2023/10/28 00:18:00;;;;;;;9.65;5.75;;;17.20;99.90;;;;;;4594610;19;20007;-84
2023/10/28 00:19:35;;;;;;;7.80;5.93;;;17.20;99.90;;;;;;4592733;19;20349;-85
2023/10/28 00:21:11;;;;;;;8.02;5.95;;;17.20;99.90;;;;;;4594127;19;20033;-84
2023/10/28 00:22:46;;;;;;;9.00;6.45;;;17.20;99.90;;;;;;4594533;19;20011;-84
2023/10/28 00:24:22;;;;;;;7.82;6.72;;;17.20;99.90;;;;;;4594424;19;19999;-84
2023/10/28 00:26:05;;;;;;;9.18;6.88;;;17.20;99.90;;;;;;4594893;19;20010;-84
2023/10/28 00:27:41;;;;;;;11.10;7.57;;;17.20;99.90;;;;;;4591844;19;20010;-84
2023/10/28 00:29:15;;;;;;;8.45;6.40;;;17.20;99.90;;;;;;4593956;19;19999;-84
2023/10/28 00:30:50;;;;;;;10.95;7.85;;;17.20;99.90;;;;;;4594504;19;20025;-84
2023/10/28 00:32:26;;;;;;;12.68;8.73;;;17.20;99.90;;;;;;4594314;19;20003;-84
2023/10/28 00:34:00;;;;;;;11.18;8.15;;;17.20;99.90;;;;;;4594177;19;20002;-84
2023/10/28 00:35:35;;;;;;;12.88;8.65;;;17.20;99.90;;;;;;4594170;19;20021;-84
2023/10/28 00:37:11;;;;;;;17.13;9.70;;;17.20;99.90;;;;;;4591865;19;20010;-84
2023/10/28 00:38:46;;;;;;;13.05;8.93;;;17.20;99.90;;;;;;4593769;19;19999;-85
2023/10/28 00:40:20;;;;;;;16.13;10.07;;;17.20;99.90;;;;;;4591764;19;20074;-84
2023/10/28 00:41:55;;;;;;;17.92;10.25;;;17.20;99.90;;;;;;4593680;19;20014;-84
2023/10/28 00:43:32;;;;;;;19.13;10.60;;;17.20;99.90;;;;;;4593954;19;20018;-84
2023/10/28 00:45:08;;;;;;;17.85;9.57;;;17.20;99.90;;;;;;4593983;19;20429;-84
2023/10/28 00:46:44;;;;;;;17.48;9.13;;;17.20;99.90;;;;;;4592020;19;20436;-84
2023/10/28 00:48:19;;;;;;;16.90;8.43;;;17.20;99.90;;;;;;4592530;19;20028;-84
2023/10/28 00:49:54;;;;;;;13.48;8.27;;;17.20;99.90;;;;;;4591587;19;20003;-84
2023/10/28 00:51:29;;;;;;;13.55;8.35;;;17.20;99.90;;;;;;4594243;19;20078;-85
2023/10/28 00:53:03;;;;;;;15.18;8.70;;;17.20;99.90;;;;;;4593783;19;20061;-84
2023/10/28 00:54:38;;;;;;;12.40;7.47;;;17.20;99.90;;;;;;4592470;19;19998;-85
2023/10/28 00:56:13;;;;;;;11.70;8.05;;;17.20;99.90;;;;;;4592309;19;20078;-85
2023/10/28 00:57:47;;;;;;;14.10;7.80;;;17.20;99.90;;;;;;4592328;19;20003;-85
2023/10/28 00:59:23;;;;;;;16.35;9.30;;;17.20;99.90;;;;;;4593319;19;20443;-84
2023/10/28 01:00:59;;;;;;;16.67;9.35;;;17.20;99.90;;;;;;4594366;19;20009;-84
2023/10/28 01:02:35;;;;;;;15.13;8.32;;;17.20;99.90;;;;;;4593594;19;20006;-85
2023/10/28 01:04:12;;;;;;;13.90;8.18;;;17.20;99.90;;;;;;4592265;19;20006;-84
2023/10/28 01:05:48;;;;;;;12.48;7.88;;;17.20;99.90;;;;;;4593595;19;20002;-84
2023/10/28 01:07:22;;;;;;;11.60;7.53;;;17.30;99.90;;;;;;4592464;19;20044;-84
2023/10/28 01:08:56;;;;;;;12.38;6.95;;;17.20;99.90;;;;;;4592162;19;20003;-84
2023/10/28 01:10:33;;;;;;;11.50;7.43;;;17.20;99.90;;;;;;4593225;19;20005;-84
2023/10/28 01:12:08;;;;;;;10.57;6.93;;;17.20;99.90;;;;;;4592387;19;20006;-84
2023/10/28 01:13:44;;;;;;;12.48;7.18;;;17.20;99.90;;;;;;4593086;19;20007;-84
2023/10/28 01:15:20;;;;;;;13.55;8.93;;;17.20;99.90;;;;;;4593398;19;20006;-84
2023/10/28 01:16:54;;;;;;;13.13;9.20;;;17.20;99.90;;;;;;4590895;19;20367;-84
2023/10/28 01:18:28;;;;;;;12.15;7.93;;;17.20;99.90;;;;;;4591988;19;20492;-84
2023/10/28 01:20:03;;;;;;;11.20;7.85;;;17.20;99.90;;;;;;4592263;19;20429;-84
2023/10/28 01:21:40;;;;;;;10.15;7.20;;;17.20;99.90;;;;;;4593127;19;20314;-84
2023/10/28 01:23:14;;;;;;;8.88;6.55;;;17.20;99.90;;;;;;4593221;19;20090;-84
2023/10/28 01:24:50;;;;;;;9.30;6.20;;;17.20;99.90;;;;;;4591880;19;20043;-84
2023/10/28 01:26:27;;;;;;;9.48;7.10;;;17.20;99.90;;;;;;4592448;19;20025;-84
2023/10/28 01:28:01;;;;;;;9.90;7.40;;;17.20;99.90;;;;;;4591818;19;20086;-84
2023/10/28 01:29:37;;;;;;;10.55;7.25;;;17.20;99.90;;;;;;4592964;19;20005;-84
2023/10/28 01:31:11;;;;;;;11.77;7.47;;;17.20;99.90;;;;;;4593031;19;19999;-84
2023/10/28 01:32:45;;;;;;;11.07;6.93;;;17.20;99.90;;;;;;4592941;19;20351;-84
2023/10/28 01:34:22;;;;;;;10.93;6.22;;;17.20;99.90;;;;;;4593055;19;20006;-84
2023/10/28 01:35:58;;;;;;;9.05;6.78;;;17.20;99.90;;;;;;4591579;19;20450;-84
2023/10/28 01:37:32;;;;;;;11.02;7.93;;;17.20;99.90;;;;;;4591722;19;20008;-84
2023/10/28 01:39:09;;;;;;;12.63;8.65;;;17.20;99.90;;;;;;4592906;19;20444;-84
2023/10/28 01:40:43;;;;;;;13.13;8.27;;;17.20;99.90;;;;;;4592106;19;20016;-85
2023/10/28 01:42:18;;;;;;;9.05;6.43;;;17.20;99.90;;;;;;4591443;19;20343;-84
2023/10/28 01:43:54;;;;;;;9.07;6.30;;;17.20;99.90;;;;;;4591521;19;20010;-84
2023/10/28 01:45:28;;;;;;;11.57;9.13;;;17.20;99.90;;;;;;4592713;19;20014;-84
2023/10/28 01:47:03;;;;;;;10.18;7.85;;;17.20;99.90;;;;;;4591997;19;20317;-85
2023/10/28 01:48:39;;;;;;;10.25;6.90;;;17.20;99.90;;;;;;4592796;19;20361;-85
2023/10/28 01:50:20;;;;;;;8.23;6.78;;;17.20;99.90;;;;;;4592649;19;20425;-84
2023/10/28 01:51:57;;;;;;;10.00;7.05;;;17.20;99.90;;;;;;4591601;19;20453;-85
2023/10/28 01:53:33;;;;;;;8.93;6.63;;;17.20;99.90;;;;;;4592204;19;20074;-84
2023/10/28 01:55:11;;;;;;;8.50;6.13;;;17.20;99.90;;;;;;4591512;19;20070;-85
2023/10/28 01:56:45;;;;;;;9.65;6.45;;;17.20;99.90;;;;;;4591818;19;20018;-85
2023/10/28 01:58:20;;;;;;;9.35;6.30;;;17.20;99.90;;;;;;4592532;19;20006;-84
2023/10/28 01:59:55;;;;;;;9.57;6.55;;;17.20;99.90;;;;;;4592062;19;20066;-84
2023/10/28 02:01:30;;;;;;;11.27;7.90;;;17.20;99.90;;;;;;4590707;19;19994;-84
2023/10/28 02:03:08;;;;;;;13.27;7.82;;;17.20;99.90;;;;;;4592562;19;20006;-84
2023/10/28 02:04:44;;;;;;;12.63;8.18;;;17.20;99.90;;;;;;4591144;19;20407;-84
2023/10/28 02:06:17;;;;;;;11.10;7.22;;;17.20;99.90;;;;;;4591808;19;19998;-84
2023/10/28 02:07:53;;;;;;;9.77;7.50;;;17.20;99.90;;;;;;4591223;19;20037;-84
2023/10/28 02:09:27;;;;;;;11.35;8.05;;;17.20;99.90;;;;;;4591987;19;20006;-84
2023/10/28 02:11:01;;;;;;;12.05;8.30;;;17.20;99.90;;;;;;4590884;19;20041;-84
2023/10/28 02:12:37;;;;;;;10.93;8.07;;;17.20;99.90;;;;;;4591325;19;20395;-84
2023/10/28 02:14:12;;;;;;;14.23;9.40;;;17.20;99.90;;;;;;4592118;19;20015;-84
2023/10/28 02:15:50;;;;;;;13.75;9.45;;;17.20;99.90;;;;;;4592201;19;20003;-84
2023/10/28 02:17:26;;;;;;;13.25;9.30;;;17.20;99.90;;;;;;4590863;19;20018;-84
2023/10/28 02:19:01;;;;;;;11.45;8.82;;;17.20;99.90;;;;;;4592172;19;20003;-84
2023/10/28 02:20:37;;;;;;;13.38;9.07;;;17.20;99.90;;;;;;4591389;19;20003;-84
2023/10/28 02:22:13;;;;;;;11.05;8.98;;;17.20;99.90;;;;;;4592161;19;20029;-84
2023/10/28 02:23:49;;;;;;;10.75;7.53;;;17.20;99.90;;;;;;4592254;19;20030;-84
2023/10/28 02:25:23;;;;;;;11.93;8.30;;;17.20;99.90;;;;;;4592306;19;19999;-84
2023/10/28 02:26:59;;;;;;;15.00;10.20;;;17.20;99.90;;;;;;4589961;19;20018;-84
2023/10/28 02:28:33;;;;;;;10.13;8.02;;;17.20;99.90;;;;;;4591883;19;20006;-85
2023/10/28 02:30:09;;;;;;;12.30;8.70;;;17.20;99.90;;;;;;4591875;19;20005;-84
2023/10/28 02:31:45;;;;;;;12.98;8.25;;;17.20;99.90;;;;;;4592271;19;20429;-84
2023/10/28 02:33:19;;;;;;;11.25;8.13;;;17.20;99.90;;;;;;4592093;19;20305;-84
2023/10/28 02:34:54;;;;;;;11.90;7.90;;;17.20;99.90;;;;;;4590450;19;20378;-84
2023/10/28 02:36:31;;;;;;;11.65;8.23;;;17.20;99.90;;;;;;4591178;19;20014;-84
2023/10/28 02:38:05;;;;;;;11.30;8.25;;;17.20;99.90;;;;;;4591837;19;19998;-84
2023/10/28 02:39:39;;;;;;;10.50;7.43;;;17.20;99.90;;;;;;4591802;19;20445;-85
2023/10/28 02:41:15;;;;;;;10.77;7.68;;;17.20;99.90;;;;;;4591794;19;20007;-85
2023/10/28 02:42:48;;;;;;;10.60;8.30;;;17.20;99.90;;;;;;4591979;19;20361;-85
2023/10/28 02:44:23;;;;;;;11.20;8.13;;;17.20;99.90;;;;;;4591969;19;20006;-85
2023/10/28 02:45:59;;;;;;;13.25;10.30;;;17.20;99.90;;;;;;4591743;19;20038;-85
2023/10/28 02:47:34;;;;;;;12.15;8.95;;;17.20;99.90;;;;;;4590446;19;20039;-85
2023/10/28 02:49:08;;;;;;;16.17;10.52;;;17.20;99.90;;;;;;4591577;19;20421;-84
2023/10/28 02:50:45;;;;;;;15.32;10.73;;;17.20;99.90;;;;;;4592071;19;20020;-85
2023/10/28 02:52:19;;;;;;;16.92;11.10;;;17.20;99.90;;;;;;4591479;19;20318;-85
2023/10/28 02:53:53;;;;;;;16.17;10.95;;;17.20;99.90;;;;;;4591787;19;20452;-85
2023/10/28 02:55:28;;;;;;;13.48;9.38;;;17.20;99.90;;;;;;4591579;19;20031;-85
2023/10/28 02:57:03;;;;;;;12.90;9.20;;;17.20;99.90;;;;;;4590651;19;20026;-85
2023/10/28 02:58:38;;;;;;;13.15;9.27;;;17.20;99.90;;;;;;4590075;19;20002;-84
2023/10/28 03:00:14;;;;;;;19.23;11.50;;;17.10;99.90;;;;;;4590523;19;20007;-84
2023/10/28 03:01:48;;;;;;;20.27;13.35;;;17.20;99.90;;;;;;4590326;19;20287;-84
2023/10/28 03:03:22;;;;;;;17.98;11.68;;;17.20;99.90;;;;;;4590094;19;20006;-84
2023/10/28 03:04:59;;;;;;;18.77;11.73;;;17.20;99.90;;;;;;4591050;19;20007;-85
2023/10/28 03:06:33;;;;;;;21.10;13.25;;;17.20;99.90;;;;;;4590895;19;20306;-85
2023/10/28 03:08:07;;;;;;;17.75;11.05;;;17.20;99.90;;;;;;4591256;19;20326;-85
2023/10/28 03:09:43;;;;;;;14.80;10.27;;;17.10;99.90;;;;;;4590268;19;20003;-85
2023/10/28 03:11:18;;;;;;;14.38;9.63;;;17.20;99.90;;;;;;4590920;19;20086;-85
2023/10/28 03:12:52;;;;;;;15.77;10.15;;;17.10;99.90;;;;;;4593475;19;19998;-85
2023/10/28 03:14:28;;;;;;;14.88;9.63;;;17.20;99.90;;;;;;4596089;19;20346;-84
2023/10/28 03:16:01;;;;;;;17.75;10.77;;;17.20;99.90;;;;;;4594724;19;20009;-84
2023/10/28 03:17:35;;;;;;;19.70;11.18;;;17.20;99.90;;;;;;4593647;19;20031;-84
2023/10/28 03:19:11;;;;;;;23.20;12.65;;;17.10;99.90;;;;;;4596103;19;20024;-84
2023/10/28 03:20:45;;;;;;;21.02;11.95;;;17.20;99.90;;;;;;4594360;19;20035;-84
2023/10/28 03:22:19;;;;;;;17.83;12.13;;;17.10;99.90;;;;;;4595711;19;20010;-85
2023/10/28 03:23:55;;;;;;;19.65;11.82;;;17.20;99.90;;;;;;4595708;19;20006;-84
2023/10/28 03:25:31;;;;;;;15.02;10.30;;;17.20;99.90;;;;;;4595692;19;20078;-84
2023/10/28 03:27:06;;;;;;;14.90;11.18;;;17.20;99.90;;;;;;4594427;19;20006;-84
2023/10/28 03:28:41;;;;;;;14.93;11.07;;;17.10;99.90;;;;;;4595937;19;20016;-84
2023/10/28 03:30:15;;;;;;;14.50;11.07;;;17.20;99.90;;;;;;4595805;19;20516;-84
2023/10/28 03:31:49;;;;;;;12.40;8.93;;;17.20;99.90;;;;;;4595815;19;20421;-84
2023/10/28 03:33:26;;;;;;;9.15;7.80;;;17.20;99.90;;;;;;4594173;19;20074;-84
2023/10/28 03:35:00;;;;;;;9.23;7.38;;;17.20;99.90;;;;;;4595324;19;20009;-85
2023/10/28 03:36:34;;;;;;;9.88;7.53;;;17.20;99.90;;;;;;4593495;19;20013;-84
2023/10/28 03:38:10;;;;;;;8.25;6.65;;;17.20;99.90;;;;;;4595289;19;20442;-85
2023/10/28 03:39:44;;;;;;;9.93;7.75;;;17.20;99.90;;;;;;4595027;19;20025;-85
2023/10/28 03:41:19;;;;;;;8.98;7.30;;;17.20;99.90;;;;;;4595368;19;20008;-85
2023/10/28 03:42:55;;;;;;;7.70;6.90;;;17.20;99.90;;;;;;4593934;19;20058;-84
2023/10/28 03:44:29;;;;;;;9.50;7.03;;;17.10;99.90;;;;;;4594868;19;20017;-84
2023/10/28 03:46:04;;;;;;;9.60;7.15;;;17.20;99.90;;;;;;4593795;19;20332;-84
2023/10/28 03:47:43;;;;;;;8.02;6.28;;;17.10;99.90;;;;;;4594907;19;20014;-84
2023/10/28 03:49:17;;;;;;;8.55;6.57;;;17.20;99.90;;;;;;4595134;19;20422;-84
2023/10/28 03:51:03;;;;;;;8.63;6.88;;;17.20;99.90;;;;;;4595119;19;19998;-85
2023/10/28 03:52:39;;;;;;;9.90;6.97;;;17.20;99.90;;;;;;4593808;19;20007;-84
2023/10/28 03:54:13;;;;;;;9.10;7.32;;;17.20;99.90;;;;;;4594915;19;20002;-84
2023/10/28 03:55:48;;;;;;;9.52;7.25;;;17.10;99.90;;;;;;4595033;19;20003;-84
2023/10/28 03:57:23;;;;;;;8.45;6.78;;;17.10;99.90;;;;;;4593697;19;20070;-84
2023/10/28 03:58:57;;;;;;;16.70;7.05;;;17.20;99.90;;;;;;4594908;19;20031;-84
2023/10/28 04:00:31;;;;;;;8.57;6.75;;;17.20;99.90;;;;;;4592534;19;20026;-84
2023/10/28 04:02:06;;;;;;;10.90;7.45;;;17.20;99.90;;;;;;4595030;19;20024;-85
2023/10/28 04:03:40;;;;;;;10.13;7.20;;;17.20;99.90;;;;;;4594846;19;20002;-84
2023/10/28 04:05:15;;;;;;;8.23;7.18;;;17.20;99.90;;;;;;4594790;19;20007;-84
2023/10/28 04:06:50;;;;;;;10.82;7.60;;;17.20;99.90;;;;;;4594384;19;20078;-84
2023/10/28 04:08:25;;;;;;;9.52;7.10;;;17.20;99.90;;;;;;4594626;19;20002;-84
2023/10/28 04:10:04;;;;;;;8.80;7.03;;;17.20;99.90;;;;;;4594990;19;20002;-85
2023/10/28 04:11:39;;;;;;;8.95;6.97;;;17.10;99.90;;;;;;4594700;19;20317;-84
2023/10/28 04:13:14;;;;;;;8.98;6.85;;;17.20;99.90;;;;;;4594692;19;20014;-84
2023/10/28 04:14:48;;;;;;;9.07;7.57;;;17.20;99.90;;;;;;4594596;19;20025;-84
2023/10/28 04:16:25;;;;;;;8.93;6.60;;;17.20;99.90;;;;;;4594054;19;20003;-83
2023/10/28 04:18:00;;;;;;;7.68;6.32;;;17.20;99.90;;;;;;4593520;19;20413;-84
2023/10/28 04:19:35;;;;;;;7.72;6.05;;;17.30;99.90;;;;;;4594463;19;20414;-83
2023/10/28 04:21:10;;;;;;;8.45;6.32;;;17.30;99.90;;;;;;4594535;19;20007;-82
2023/10/28 04:22:44;;;;;;;9.32;6.88;;;17.30;99.90;;;;;;4594457;19;20006;-83
2023/10/28 04:24:18;;;;;;;8.43;5.85;;;17.30;99.90;;;;;;4592565;19;20081;-84
2023/10/28 04:25:53;;;;;;;9.07;6.28;;;17.40;99.90;;;;;;4594452;19;20006;-84
2023/10/28 04:27:29;;;;;;;9.50;6.93;;;17.40;99.90;;;;;;4591959;19;20387;-84
2023/10/28 04:29:03;;;;;;;9.05;6.97;;;17.40;99.90;;;;;;4593965;19;19995;-84
2023/10/28 04:30:39;;;;;;;11.52;6.82;;;17.60;99.90;;;;;;4594285;19;20043;-85
2023/10/28 04:32:17;;;;;;;8.40;6.82;;;17.60;99.90;;;;;;4592939;19;20011;-84
2023/10/28 04:33:51;;;;;;;7.28;5.82;;;17.70;99.90;;;;;;4593862;19;20030;-84
2023/10/28 04:35:28;;;;;;;7.55;6.55;;;17.70;99.90;;;;;;4594470;19;20110;-85
2023/10/28 04:37:03;;;;;;;9.15;6.70;;;17.80;99.90;;;;;;4593201;19;20007;-85
2023/10/28 04:38:40;;;;;;;11.02;7.25;;;17.80;99.90;;;;;;4594070;19;20303;-85
2023/10/28 04:40:16;;;;;;;9.13;7.10;;;17.90;99.90;;;;;;4592057;19;20007;-85
2023/10/28 04:41:52;;;;;;;9.25;6.75;;;17.90;99.90;;;;;;4593947;19;20009;-85
2023/10/28 04:43:26;;;;;;;9.98;6.95;;;17.90;99.90;;;;;;4594075;19;20430;-84
2023/10/28 04:45:05;;;;;;;9.25;7.05;;;17.90;99.90;;;;;;4594085;19;20003;-84
2023/10/28 04:46:40;;;;;;;9.10;7.38;;;17.90;99.90;;;;;;4593469;19;20033;-85
2023/10/28 04:48:14;;;;;;;7.93;6.25;;;17.90;99.90;;;;;;4594149;19;20010;-85
2023/10/28 04:49:50;;;;;;;9.20;7.20;;;17.80;99.90;;;;;;4594581;19;20421;-84
2023/10/28 04:51:25;;;;;;;9.68;7.30;;;17.90;99.90;;;;;;4593778;19;20012;-84
2023/10/28 04:52:58;;;;;;;8.82;7.00;;;17.80;99.90;;;;;;4593720;19;20009;-84
2023/10/28 04:54:34;;;;;;;9.57;7.30;;;17.80;99.90;;;;;;4593947;19;20407;-80
2023/10/28 04:56:12;;;;;;;8.85;7.00;;;17.80;99.90;;;;;;4593995;19;20425;-81
2023/10/28 04:57:46;;;;;;;8.35;6.97;;;17.80;99.90;;;;;;4593779;19;20006;-83
2023/10/28 04:59:23;;;;;;;9.30;7.10;;;17.80;99.90;;;;;;4594144;19;20006;-85
2023/10/28 05:00:57;;;;;;;8.60;6.78;;;17.80;99.90;;;;;;4591211;19;20307;-85
2023/10/28 05:02:34;;;;;;;8.40;6.80;;;17.80;99.90;;;;;;4593532;19;19998;-83
2023/10/28 05:04:09;;;;;;;9.05;6.70;;;17.80;99.90;;;;;;4592292;19;20344;-81
2023/10/28 05:05:46;;;;;;;8.23;6.63;;;17.70;99.90;;;;;;4593158;19;20002;-85
2023/10/28 05:07:22;;;;;;;9.60;7.45;;;17.70;99.90;;;;;;4592568;19;20312;-85
2023/10/28 05:08:58;;;;;;;9.70;6.65;;;17.70;99.90;;;;;;4592194;19;20438;-86
2023/10/28 05:10:32;;;;;;;8.70;7.20;;;17.70;99.90;;;;;;4593420;19;20070;-85
2023/10/28 05:12:06;;;;;;;8.70;6.60;;;17.70;99.90;;;;;;4592061;19;20009;-86
2023/10/28 05:13:42;;;;;;;8.18;6.32;;;17.70;99.90;;;;;;4592526;19;20009;-85
2023/10/28 05:15:16;;;;;;;10.18;6.88;;;17.70;99.90;;;;;;4592031;19;20062;-83
2023/10/28 05:16:52;;;;;;;8.50;6.80;;;17.70;99.90;;;;;;4591986;19;20024;-82
2023/10/28 05:18:28;;;;;;;9.27;7.22;;;17.60;99.90;;;;;;4592244;19;20010;-83
2023/10/28 05:20:06;;;;;;;22.70;18.42;;;17.60;99.90;;;;;;4592493;19;20002;-83
2023/10/28 05:21:42;;;;;;;28.50;23.92;;;17.60;99.90;;;;;;4593497;19;20024;-82
2023/10/28 05:23:19;;;;;;;42.92;36.13;;;17.60;99.90;;;;;;4593193;19;20016;-82
2023/10/28 05:24:54;;;;;;;42.63;34.53;;;17.60;99.90;;;;;;4593421;19;20501;-82
2023/10/28 05:26:28;;;;;;;38.70;29.42;;;17.70;99.90;;;;;;4593000;19;20022;-82
2023/10/28 05:28:03;;;;;;;30.40;26.63;;;17.70;99.90;;;;;;4593009;19;20006;-82
2023/10/28 05:29:38;;;;;;;30.75;25.42;;;17.80;99.90;;;;;;4592934;19;20449;-82
2023/10/28 05:31:12;;;;;;;29.35;24.35;;;17.90;99.90;;;;;;4591559;19;20002;-82
2023/10/28 05:32:47;;;;;;;25.90;22.63;;;18.10;99.90;;;;;;4592940;19;20171;-82
2023/10/28 05:34:23;;;;;;;27.25;23.45;;;17.80;99.90;;;;;;4593092;19;20465;-82
2023/10/28 05:35:57;;;;;;;23.60;21.05;;;17.40;99.90;;;;;;4593252;19;20283;-82
2023/10/28 05:37:33;;;;;;;23.13;18.70;;;17.00;99.90;;;;;;4592023;19;20010;-82
2023/10/28 05:39:07;;;;;;;21.75;18.50;;;16.60;99.90;;;;;;4592847;19;20318;-82
2023/10/28 05:40:43;;;;;;;20.00;17.85;;;16.40;99.90;;;;;;4591991;19;20006;-82
2023/10/28 05:42:19;;;;;;;21.20;18.65;;;16.20;99.90;;;;;;4592863;19;19998;-82
2023/10/28 05:43:54;;;;;;;22.92;19.08;;;16.00;99.90;;;;;;4592710;19;20076;-82
2023/10/28 05:45:28;;;;;;;22.23;19.00;;;15.90;99.90;;;;;;4592737;19;19999;-82
2023/10/28 05:47:05;;;;;;;21.80;17.63;;;15.80;99.90;;;;;;4592236;19;20027;-82
2023/10/28 05:48:39;;;;;;;22.42;18.38;;;15.70;99.90;;;;;;4592632;19;20306;-82
2023/10/28 05:50:13;;;;;;;20.42;16.73;;;15.50;99.90;;;;;;4591252;19;20430;-82
2023/10/28 05:51:49;;;;;;;18.52;16.00;;;15.40;99.90;;;;;;4591288;19;20006;-81
2023/10/28 05:53:23;;;;;;;21.00;18.27;;;15.30;99.90;;;;;;4592129;19;19999;-82
2023/10/28 05:54:58;;;;;;;20.52;18.42;;;15.30;99.90;;;;;;4591442;19;19998;-82
2023/10/28 05:56:35;;;;;;;30.60;27.30;;;15.20;99.90;;;;;;4591515;19;20010;-82
2023/10/28 05:58:09;;;;;;;37.35;33.35;;;15.10;99.90;;;;;;4592173;19;20007;-81
2023/10/28 05:59:44;;;;;;;45.90;41.17;;;15.10;99.90;;;;;;4592556;19;20069;-79
2023/10/28 06:01:19;;;;;;;40.78;36.58;;;15.10;99.90;;;;;;4592775;19;20021;-79
2023/10/28 06:02:54;;;;;;;40.65;36.45;;;15.10;99.90;;;;;;4592585;19;20422;-79
2023/10/28 06:04:30;;;;;;;38.45;34.50;;;15.10;99.90;;;;;;4591005;19;20080;-81
2023/10/28 06:06:05;;;;;;;30.35;27.08;;;15.10;99.90;;;;;;4592021;19;20017;-81
2023/10/28 06:07:47;;;;;;;28.85;24.83;;;15.10;99.90;;;;;;4592588;19;20002;-81
2023/10/28 06:09:23;;;;;;;24.00;19.67;;;15.20;99.90;;;;;;4592331;19;20023;-79
2023/10/28 06:10:59;;;;;;;25.70;19.40;;;15.20;99.90;;;;;;4592320;19;20007;-77
2023/10/28 06:12:35;;;;;;;24.77;20.13;;;15.20;99.90;;;;;;4592410;19;20003;-79
2023/10/28 06:14:09;;;;;;;25.95;20.50;;;15.20;99.90;;;;;;4592457;19;20003;-82
2023/10/28 06:15:46;;;;;;;28.00;21.65;;;15.20;99.90;;;;;;4592050;19;20457;-79
2023/10/28 06:17:21;;;;;;;23.83;18.60;;;15.10;99.90;;;;;;4590982;19;20018;-82
2023/10/28 06:18:54;;;;;;;22.33;17.80;;;15.10;99.90;;;;;;4592302;19;20304;-79
2023/10/28 06:20:30;;;;;;;18.73;15.80;;;15.00;99.90;;;;;;4591645;19;20421;-79
2023/10/28 06:22:04;;;;;;;16.05;13.80;;;15.00;99.90;;;;;;4590611;19;20022;-79
2023/10/28 06:23:41;;;;;;;16.92;13.85;;;14.90;99.90;;;;;;4591860;19;20291;-79
2023/10/28 06:25:17;;;;;;;14.90;12.95;;;14.90;99.90;;;;;;4591996;19;20026;-79
2023/10/28 06:26:54;;;;;;;16.13;12.93;;;14.80;99.90;;;;;;4591622;19;20013;-79
2023/10/28 06:28:29;;;;;;;15.73;13.15;;;14.80;99.90;;;;;;4591931;19;20006;-79
2023/10/28 06:30:06;;;;;;;13.95;11.48;;;14.80;99.90;;;;;;4591967;19;20326;-79
2023/10/28 06:31:43;;;;;;;14.10;11.88;;;14.70;99.90;;;;;;4591941;19;20014;-79
2023/10/28 06:33:18;;;;;;;18.05;14.30;;;14.70;99.90;;;;;;4590489;19;20006;-79
2023/10/28 06:34:54;;;;;;;19.30;15.00;;;14.60;99.90;;;;;;4591456;19;20007;-79
2023/10/28 06:36:29;;;;;;;21.17;17.27;;;14.60;99.90;;;;;;4591366;19;20007;-79
2023/10/28 06:38:03;;;;;;;20.88;15.98;;;14.60;99.90;;;;;;4591676;19;20009;-79
2023/10/28 06:39:38;;;;;;;21.35;16.08;;;14.50;99.90;;;;;;4591624;19;20307;-79
2023/10/28 06:41:12;;;;;;;20.98;15.75;;;14.50;99.90;;;;;;4590393;19;20426;-79
2023/10/28 06:42:47;;;;;;;21.10;16.52;;;14.50;99.90;;;;;;4591669;19;20003;-79
2023/10/28 06:44:23;;;;;;;20.65;16.90;;;14.50;99.90;;;;;;4590514;19;20006;-79
2023/10/28 06:45:58;;;;;;;20.98;17.15;;;14.40;99.90;;;;;;4591235;19;20034;-79
2023/10/28 06:47:33;;;;;;;19.90;15.45;;;14.40;99.90;;;;;;4591419;19;20436;-79
2023/10/28 06:49:09;;;;;;;18.27;15.30;;;14.40;99.90;;;;;;4595288;19;20010;-79
2023/10/28 06:50:42;;;;;;;18.38;14.98;;;14.40;99.90;;;;;;4595913;19;20313;-79
2023/10/28 06:52:16;;;;;;;19.00;15.98;;;14.40;99.90;;;;;;4596283;19;19999;-78
2023/10/28 06:53:53;;;;;;;19.13;14.65;;;14.40;99.90;;;;;;4594898;19;20027;-80
2023/10/28 06:55:29;;;;;;;20.52;16.63;;;14.40;99.90;;;;;;4596088;19;20496;-73
2023/10/28 06:57:03;;;;;;;17.98;15.27;;;14.40;99.90;;;;;;4594945;19;20031;-78
2023/10/28 06:58:42;;;;;;;20.20;16.77;;;14.40;99.90;;;;;;4595886;19;20015;-79
2023/10/28 07:00:17;;;;;;;15.05;13.43;;;14.50;99.90;;;;;;4593721;19;20018;-78
2023/10/28 07:01:52;;;;;;;28.63;19.35;;;14.40;99.90;;;;;;4595752;19;20444;-81
2023/10/28 07:03:31;;;;;;;25.92;19.00;;;14.40;99.90;;;;;;4596075;19;20010;-80
2023/10/28 07:05:05;;;;;;;26.50;20.15;;;14.40;99.90;;;;;;4596233;19;20010;-82
2023/10/28 07:06:40;;;;;;;27.93;21.17;;;14.40;99.90;;;;;;4595210;19;20065;-78
2023/10/28 07:08:18;;;;;;;27.27;24.38;;;14.40;99.90;;;;;;4596247;19;20013;-80
2023/10/28 07:09:52;;;;;;;30.45;27.35;;;14.40;99.90;;;;;;4594884;19;20078;-83
2023/10/28 07:11:27;;;;;;;35.97;32.22;;;14.40;99.90;;;;;;4595609;19;20287;-78
2023/10/28 07:13:02;;;;;;;38.30;34.40;;;14.40;99.90;;;;;;4595672;19;20006;-82
2023/10/28 07:14:37;;;;;;;36.10;32.45;;;14.30;99.90;;;;;;4595763;19;20003;-82
2023/10/28 07:16:12;;;;;;;34.35;30.85;;;14.30;99.90;;;;;;4595743;19;20080;-79
2023/10/28 07:17:50;;;;;;;28.45;25.23;;;14.30;99.90;;;;;;4596009;19;20082;-79
2023/10/28 07:19:25;;;;;;;25.95;22.95;;;14.30;99.90;;;;;;4595638;19;20002;-80
2023/10/28 07:21:00;;;;;;;21.55;18.63;;;14.30;99.90;;;;;;4594162;19;20039;-81
2023/10/28 07:22:35;;;;;;;21.77;19.45;;;14.30;99.90;;;;;;4594317;19;20469;-78
2023/10/28 07:24:11;;;;;;;24.30;21.80;;;14.30;99.90;;;;;;4595480;19;20002;-80
2023/10/28 07:25:46;;;;;;;24.27;21.75;;;14.20;99.90;;;;;;4595837;19;20321;-79
2023/10/28 07:27:22;;;;;;;24.23;21.73;;;14.20;99.90;;;;;;4594128;19;20010;-78
2023/10/28 07:28:57;;;;;;;23.00;19.40;;;14.20;99.90;;;;;;4595634;19;20316;-82
2023/10/28 07:30:31;;;;;;;14.73;12.55;;;14.20;99.90;;;;;;4595318;19;20366;-79
2023/10/28 07:32:09;;;;;;;12.03;10.50;;;14.20;99.90;;;;;;4594095;19;20023;-78
2023/10/28 07:33:43;;;;;;;13.07;10.48;;;14.20;99.90;;;;;;4595165;19;20020;-79
2023/10/28 07:35:18;;;;;;;13.95;11.15;;;14.20;99.90;;;;;;4595248;19;20014;-79
2023/10/28 07:36:53;;;;;;;12.52;10.73;;;14.20;99.90;;;;;;4594441;19;20291;-79
2023/10/28 07:38:27;;;;;;;11.80;9.57;;;14.10;99.90;;;;;;4595199;19;19998;-79
2023/10/28 07:40:03;;;;;;;10.95;9.65;;;14.20;99.90;;;;;;4594724;19;20407;-79
2023/10/28 07:41:39;;;;;;;10.98;9.77;;;14.40;99.90;;;;;;4592580;19;20010;-78
2023/10/28 07:43:13;;;;;;;12.27;9.30;;;14.60;99.90;;;;;;4593116;19;20002;-79
2023/10/28 07:44:47;;;;;;;11.10;9.45;;;14.70;99.90;;;;;;4593105;19;20014;-80
2023/10/28 07:46:23;;;;;;;11.18;8.45;;;14.90;99.90;;;;;;4592751;19;20420;-79
2023/10/28 07:47:57;;;;;;;11.63;9.43;;;15.00;99.90;;;;;;4592822;19;20007;-80
2023/10/28 07:49:32;;;;;;;11.40;9.90;;;15.20;99.90;;;;;;4593128;19;20025;-81
2023/10/28 07:51:08;;;;;;;13.77;10.82;;;15.30;99.90;;;;;;4592849;19;19999;-87
2023/10/28 07:52:44;;;;;;;12.50;10.65;;;15.40;99.90;;;;;;4592735;19;20378;-82
2023/10/28 07:54:18;;;;;;;13.40;10.98;;;15.50;99.90;;;;;;4592984;19;20501;-82
2023/10/28 07:55:53;;;;;;;12.07;10.73;;;15.60;99.90;;;;;;4593054;19;20348;-77
2023/10/28 07:57:30;;;;;;;13.20;11.23;;;15.70;99.90;;;;;;4591513;19;20076;-77
2023/10/28 07:59:05;;;;;;;13.00;11.07;;;15.80;99.90;;;;;;4590412;19;20007;-79
2023/10/28 08:00:40;;;;;;;14.05;10.43;;;15.90;99.90;;;;;;4591932;19;20007;-80
2023/10/28 08:02:16;;;;;;;11.98;9.75;;;16.00;99.90;;;;;;4592562;19;19999;-79
2023/10/28 08:03:52;;;;;;;12.68;10.38;;;16.00;99.90;;;;;;4592513;19;20121;-80
2023/10/28 08:05:28;;;;;;;12.25;9.55;;;16.10;99.90;;;;;;4592581;19;19999;-79
2023/10/28 08:07:03;;;;;;;13.73;10.57;;;16.20;99.90;;;;;;4591724;19;20006;-81
2023/10/28 08:08:39;;;;;;;11.18;8.88;;;16.30;99.90;;;;;;4592425;19;19998;-82
2023/10/28 08:10:16;;;;;;;10.43;9.00;;;16.40;99.90;;;;;;4592711;19;20027;-84
2023/10/28 08:11:51;;;;;;;9.30;8.23;;;16.60;99.90;;;;;;4592716;19;20062;-81
2023/10/28 08:13:25;;;;;;;9.55;7.93;;;16.60;99.90;;;;;;4592884;19;20077;-80
2023/10/28 08:15:07;;;;;;;11.20;8.95;;;16.80;99.90;;;;;;4594235;19;20092;-80
2023/10/28 08:16:43;;;;;;;20.30;18.25;;;17.00;99.90;;;;;;4592180;19;20309;-79
2023/10/28 08:18:17;;;;;;;13.40;12.05;;;17.10;99.90;;;;;;4594108;19;20029;-81
2023/10/28 08:19:52;;;;;;;9.52;7.90;;;17.20;99.90;;;;;;4594313;19;20006;-81
2023/10/28 08:21:27;;;;;;;9.23;8.30;;;17.30;99.90;;;;;;4594453;19;20048;-81
2023/10/28 08:23:01;;;;;;;10.20;8.63;;;17.40;99.90;;;;;;4594394;19;20003;-80
2023/10/28 08:24:37;;;;;;;10.13;9.13;;;17.60;99.90;;;;;;4594398;19;20098;-81